createdAt,value
2022-08-11T00:01:41.831Z,20.02
2022-08-11T00:04:08.134Z,20.00
2022-08-11T00:06:35.144Z,19.95
2022-08-11T00:09:01.405Z,19.85
2022-08-11T00:11:27.699Z,19.80
2022-08-11T00:13:55.982Z,19.85
2022-08-11T00:16:22.282Z,19.84
2022-08-11T00:18:48.588Z,19.80
2022-08-11T00:21:14.878Z,19.75
2022-08-11T00:23:41.175Z,19.68
2022-08-11T00:26:07.649Z,19.65
2022-08-11T00:28:33.972Z,19.65
2022-08-11T00:31:00.691Z,19.52
2022-08-11T00:33:44.446Z,19.47
2022-08-11T00:36:11.622Z,19.43
2022-08-11T00:38:37.985Z,19.47
2022-08-11T00:41:04.285Z,19.49
2022-08-11T00:43:30.606Z,19.46
2022-08-11T00:45:57.241Z,19.28
2022-08-11T00:48:23.553Z,19.30
2022-08-11T00:50:49.851Z,19.22
2022-08-11T00:53:16.159Z,19.12
2022-08-11T00:55:47.285Z,19.10
2022-08-11T00:58:22.653Z,19.15
2022-08-11T01:00:49.130Z,19.16
2022-08-11T01:03:17.842Z,19.17
2022-08-11T01:05:48.254Z,19.14
2022-08-11T01:08:14.559Z,19.12
2022-08-11T01:10:40.851Z,19.04
2022-08-11T01:13:08.547Z,19.02
2022-08-11T01:15:36.097Z,18.97
2022-08-11T01:18:02.417Z,18.89
2022-08-11T01:20:45.516Z,18.88
2022-08-11T01:23:15.779Z,18.84
2022-08-11T01:25:57.170Z,18.82
2022-08-11T01:28:24.151Z,18.76
2022-08-11T01:30:50.465Z,18.73
2022-08-11T01:33:16.778Z,18.75
2022-08-11T01:35:43.085Z,18.70
2022-08-11T01:38:09.399Z,18.66
2022-08-11T01:40:35.690Z,18.63
2022-08-11T01:43:20.648Z,18.56
2022-08-11T01:45:48.420Z,18.43
2022-08-11T01:48:16.066Z,18.48
2022-08-11T01:50:42.394Z,18.43
2022-08-11T01:53:08.679Z,18.34
2022-08-11T01:55:34.974Z,18.28
2022-08-11T01:58:02.705Z,18.25
2022-08-11T02:00:29.236Z,18.16
2022-08-11T02:02:55.572Z,18.19
2022-08-11T02:05:21.986Z,18.22
2022-08-11T02:07:48.289Z,18.19
2022-08-11T02:10:40.403Z,18.09
2022-08-11T02:13:06.695Z,18.08
2022-08-11T02:15:36.348Z,17.97
2022-08-11T02:18:02.647Z,17.98
2022-08-11T02:20:55.278Z,18.01
2022-08-11T02:24:04.161Z,17.91
2022-08-11T02:26:25.926Z,17.91
2022-08-11T02:28:53.123Z,17.90
2022-08-11T02:32:14.611Z,17.87
2022-08-11T02:34:24.284Z,17.86
2022-08-11T02:36:50.563Z,17.85
2022-08-11T02:39:16.900Z,17.83
2022-08-11T02:42:01.811Z,17.81
2022-08-11T02:44:28.232Z,17.74
2022-08-11T02:46:55.069Z,17.67
2022-08-11T02:49:39.879Z,17.71
2022-08-11T02:52:06.207Z,17.71
2022-08-11T02:54:32.513Z,17.67
2022-08-11T02:56:58.812Z,17.66
2022-08-11T02:59:43.739Z,17.60
2022-08-11T03:02:10.120Z,17.58
2022-08-11T03:04:37.891Z,17.55
2022-08-11T03:07:04.328Z,17.49
2022-08-11T03:09:34.872Z,17.50
2022-08-11T03:12:20.149Z,17.46
2022-08-11T03:15:05.152Z,17.41
2022-08-11T03:17:31.443Z,17.36
2022-08-11T03:19:59.840Z,17.35
2022-08-11T03:22:26.164Z,17.29
2022-08-11T03:24:52.464Z,17.21
2022-08-11T03:27:19.727Z,17.16
2022-08-11T03:29:46.020Z,17.16
2022-08-11T03:32:12.337Z,17.11
2022-08-11T03:34:38.988Z,17.15
2022-08-11T03:37:16.823Z,17.07
2022-08-11T03:39:56.235Z,17.08
2022-08-11T03:42:23.184Z,17.07
2022-08-11T03:44:49.482Z,17.05
2022-08-11T03:47:16.131Z,17.00
2022-08-11T03:49:42.435Z,16.91
2022-08-11T03:52:08.769Z,16.93
2022-08-11T03:54:35.080Z,16.95
2022-08-11T03:57:01.534Z,16.94
2022-08-11T03:59:28.693Z,16.93
2022-08-11T04:01:55.087Z,16.80
2022-08-11T04:04:21.452Z,16.86
2022-08-11T04:06:50.072Z,16.90
2022-08-11T04:09:16.621Z,16.90
2022-08-11T04:11:43.840Z,16.81
2022-08-11T04:14:29.055Z,16.84
2022-08-11T04:16:55.379Z,16.84
2022-08-11T04:19:21.687Z,16.90
2022-08-11T04:21:47.991Z,16.93
2022-08-11T04:24:37.877Z,17.01
2022-08-11T04:27:01.888Z,16.99
2022-08-11T04:29:36.442Z,17.05
2022-08-11T04:32:17.471Z,17.10
2022-08-11T04:34:43.801Z,17.19
2022-08-11T04:37:28.834Z,17.20
2022-08-11T04:39:56.841Z,17.24
2022-08-11T04:42:41.972Z,17.31
2022-08-11T04:45:09.872Z,17.39
2022-08-11T04:48:04.057Z,17.46
2022-08-11T04:51:08.908Z,17.58
2022-08-11T04:53:54.321Z,17.60
2022-08-11T04:56:39.084Z,17.75
2022-08-11T04:59:23.895Z,17.88
2022-08-11T05:01:50.281Z,17.87
2022-08-11T05:04:35.320Z,18.10
2022-08-11T05:07:01.635Z,18.13
2022-08-11T05:09:27.968Z,18.18
2022-08-11T05:11:57.834Z,18.41
2022-08-11T05:14:46.657Z,18.45
2022-08-11T05:17:31.502Z,18.55
2022-08-11T05:20:16.364Z,18.77
2022-08-11T05:23:01.231Z,18.75
2022-08-11T05:26:44.265Z,18.92
2022-08-11T05:28:50.780Z,19.09
2022-08-11T05:31:35.739Z,19.22
2022-08-11T05:34:20.525Z,19.29
2022-08-11T05:36:46.884Z,19.23
2022-08-11T05:39:36.560Z,19.33
2022-08-11T05:42:39.374Z,19.13
2022-08-11T05:45:24.393Z,19.32
2022-08-11T05:48:09.265Z,19.50
2022-08-11T05:50:54.058Z,19.39
2022-08-11T05:53:40.559Z,19.55
2022-08-11T05:56:21.785Z,19.88
2022-08-11T05:58:48.076Z,19.78
2022-08-11T06:01:14.480Z,19.70
2022-08-11T06:03:59.357Z,19.60
2022-08-11T06:06:25.653Z,19.90
2022-08-11T06:08:51.939Z,20.29
2022-08-11T06:11:18.617Z,20.07
2022-08-11T06:14:04.897Z,20.30
2022-08-11T06:16:31.180Z,20.33
2022-08-11T06:18:57.462Z,20.42
2022-08-11T06:21:23.760Z,20.73
2022-08-11T06:23:50.051Z,20.50
2022-08-11T06:26:16.353Z,20.79
2022-08-11T06:28:44.981Z,20.88
2022-08-11T06:31:11.525Z,21.09
2022-08-11T06:33:39.675Z,21.03
2022-08-11T06:36:07.502Z,21.19
2022-08-11T06:38:35.042Z,21.36
2022-08-11T06:41:19.915Z,21.59
2022-08-11T06:43:55.876Z,21.57
2022-08-11T06:46:28.160Z,21.81
2022-08-11T06:48:55.058Z,21.71
2022-08-11T06:51:21.363Z,21.55
2022-08-11T06:53:56.346Z,21.08
2022-08-11T06:57:06.373Z,21.35
2022-08-11T06:59:55.292Z,21.79
2022-08-11T07:02:22.243Z,22.14
2022-08-11T07:04:48.482Z,22.36
2022-08-11T07:07:33.260Z,22.69
2022-08-11T07:10:18.154Z,22.84
2022-08-11T07:13:02.866Z,22.94
2022-08-11T07:16:10.376Z,22.58
2022-08-11T07:18:47.110Z,22.86
2022-08-11T07:22:01.183Z,23.08
2022-08-11T07:25:01.365Z,23.48
2022-08-11T07:27:41.679Z,23.35
2022-08-11T07:30:07.970Z,23.41
2022-08-11T07:32:34.546Z,23.59
2022-08-11T07:35:00.842Z,23.97
2022-08-11T07:37:27.169Z,24.26
2022-08-11T07:39:54.076Z,24.20
2022-08-11T07:42:20.371Z,24.07
2022-08-11T07:45:06.371Z,24.29
2022-08-11T07:47:51.187Z,24.45
2022-08-11T07:50:36.219Z,24.37
2022-08-11T07:53:02.535Z,24.57
2022-08-11T07:55:50.194Z,24.63
2022-08-11T07:58:45.085Z,24.96
2022-08-11T08:01:36.962Z,25.19
2022-08-11T08:04:22.221Z,25.45
2022-08-11T08:07:07.029Z,25.65
2022-08-11T08:09:51.949Z,25.72
2022-08-11T08:12:36.862Z,25.77
2022-08-11T08:15:22.125Z,25.77
2022-08-11T08:18:09.840Z,25.96
2022-08-11T08:20:37.930Z,25.84
2022-08-11T08:23:04.459Z,26.10
2022-08-11T08:25:30.764Z,26.42
2022-08-11T08:27:57.066Z,26.59
2022-08-11T08:30:42.256Z,26.67
2022-08-11T08:33:08.565Z,26.21
2022-08-11T08:35:34.860Z,26.77
2022-08-11T08:38:01.202Z,26.84
2022-08-11T08:40:27.495Z,26.00
2022-08-11T08:42:54.940Z,26.05
2022-08-11T08:45:21.247Z,26.63
2022-08-11T08:47:52.942Z,26.78
2022-08-11T08:50:19.944Z,26.72
2022-08-11T08:52:46.700Z,26.82
2022-08-11T08:55:13.203Z,27.10
2022-08-11T08:57:40.283Z,27.26
2022-08-11T09:00:06.724Z,27.54
2022-08-11T09:02:35.334Z,27.59
2022-08-11T09:05:01.658Z,26.73
2022-08-11T09:07:30.321Z,27.23
2022-08-11T09:10:05.559Z,27.38
2022-08-11T09:12:36.350Z,27.18
2022-08-11T09:15:05.397Z,27.05
2022-08-11T09:17:31.779Z,27.25
2022-08-11T09:20:00.233Z,26.98
2022-08-11T09:22:46.842Z,26.99
2022-08-11T09:25:31.762Z,26.55
2022-08-11T09:27:58.059Z,26.60
2022-08-11T09:30:25.900Z,26.35
2022-08-11T09:32:52.196Z,26.30
2022-08-11T09:35:19.315Z,26.03
2022-08-11T09:38:04.089Z,26.53
2022-08-11T09:40:30.569Z,26.03
2022-08-11T09:43:15.355Z,26.32
2022-08-11T09:45:41.650Z,26.71
2022-08-11T09:48:07.968Z,26.29
2022-08-11T09:50:34.324Z,26.15
2022-08-11T09:53:35.811Z,26.29
2022-08-11T09:55:47.749Z,26.70
2022-08-11T09:58:42.511Z,26.85
2022-08-11T10:01:00.466Z,26.97
2022-08-11T10:03:27.123Z,26.93
2022-08-11T10:06:12.245Z,26.89
2022-08-11T10:08:38.546Z,26.79
2022-08-11T10:11:04.937Z,27.18
2022-08-11T10:14:31.260Z,27.66
2022-08-11T10:16:20.287Z,27.86
2022-08-11T10:18:51.450Z,27.62
2022-08-11T10:21:17.781Z,27.58
2022-08-11T10:24:10.180Z,27.43
2022-08-11T10:26:52.292Z,27.62
2022-08-11T10:29:45.242Z,27.89
2022-08-11T10:32:40.056Z,28.14
2022-08-11T10:35:21.211Z,27.38
2022-08-11T10:38:15.742Z,28.05
2022-08-11T10:40:35.787Z,27.90
2022-08-11T10:43:13.189Z,27.79
2022-08-11T10:45:58.432Z,27.96
2022-08-11T10:48:24.739Z,28.11
2022-08-11T10:51:09.648Z,28.07
2022-08-11T10:53:54.504Z,28.14
2022-08-11T10:56:39.343Z,27.70
2022-08-11T10:59:08.731Z,28.04
2022-08-11T11:01:35.128Z,28.05
2022-08-11T11:04:02.975Z,28.33
2022-08-11T11:06:30.014Z,28.51
2022-08-11T11:09:01.593Z,28.25
2022-08-11T11:11:48.939Z,28.66
2022-08-11T11:14:33.782Z,28.62
2022-08-11T11:17:14.086Z,28.60
2022-08-11T11:19:40.635Z,28.86
2022-08-11T11:22:25.353Z,28.18
2022-08-11T11:24:51.664Z,28.26
2022-08-11T11:27:17.990Z,28.23
2022-08-11T11:29:44.305Z,28.47
2022-08-11T11:32:10.632Z,28.18
2022-08-11T11:34:36.930Z,28.90
2022-08-11T11:37:19.668Z,28.80
2022-08-11T11:39:46.013Z,29.03
2022-08-11T11:42:12.333Z,29.08
2022-08-11T11:44:38.637Z,28.60
2022-08-11T11:47:05.538Z,28.72
2022-08-11T11:49:32.408Z,28.83
2022-08-11T11:51:58.794Z,28.85
2022-08-11T11:54:25.103Z,28.73
2022-08-11T11:56:53.160Z,28.86
2022-08-11T11:59:38.425Z,29.13
2022-08-11T12:02:11.938Z,29.00
2022-08-11T12:04:38.877Z,28.92
2022-08-11T12:07:24.116Z,28.71
2022-08-11T12:09:50.572Z,28.56
2022-08-11T12:12:35.493Z,28.43
2022-08-11T12:15:01.822Z,28.72
2022-08-11T12:17:28.116Z,28.66
2022-08-11T12:19:54.587Z,28.67
2022-08-11T12:22:42.487Z,28.47
2022-08-11T12:25:27.332Z,28.81
2022-08-11T12:27:53.632Z,28.56
2022-08-11T12:30:19.937Z,28.27
2022-08-11T12:32:46.240Z,28.66
2022-08-11T12:35:12.533Z,28.85
2022-08-11T12:37:39.007Z,29.00
2022-08-11T12:40:43.228Z,29.07
2022-08-11T12:43:37.407Z,28.92
2022-08-11T12:46:05.412Z,28.98
2022-08-11T12:48:59.297Z,29.25
2022-08-11T12:52:12.551Z,29.25
2022-08-11T12:54:32.607Z,29.24
2022-08-11T12:57:17.696Z,28.86
2022-08-11T13:00:21.165Z,29.27
2022-08-11T13:03:06.133Z,28.91
2022-08-11T13:05:33.123Z,28.72
2022-08-11T13:08:06.879Z,28.72
2022-08-11T13:10:53.125Z,29.02
2022-08-11T13:13:52.378Z,28.82
2022-08-11T13:16:07.449Z,28.88
2022-08-11T13:18:33.765Z,28.76
2022-08-11T13:21:00.063Z,28.70
2022-08-11T13:23:26.422Z,28.92
2022-08-11T13:25:52.720Z,29.19
2022-08-11T13:28:21.195Z,29.00
2022-08-11T13:31:06.286Z,28.75
2022-08-11T13:33:32.776Z,28.76
2022-08-11T13:35:59.076Z,28.85
2022-08-11T13:38:25.368Z,28.96
2022-08-11T13:40:55.948Z,29.13
2022-08-11T13:43:22.617Z,28.71
2022-08-11T13:45:48.934Z,28.63
2022-08-11T13:48:15.593Z,28.57
2022-08-11T13:51:00.693Z,28.55
2022-08-11T13:53:27.012Z,28.92
2022-08-11T13:55:53.463Z,28.86
2022-08-11T13:58:40.192Z,29.00
2022-08-11T14:01:51.376Z,28.96
2022-08-11T14:04:31.244Z,29.15
2022-08-11T14:06:39.185Z,28.88
2022-08-11T14:09:05.558Z,28.77
2022-08-11T14:12:22.362Z,28.52
2022-08-11T14:14:36.716Z,28.67
2022-08-11T14:17:03.006Z,28.72
2022-08-11T14:19:29.327Z,28.85
2022-08-11T14:22:08.414Z,28.79
2022-08-11T14:24:35.089Z,28.92
2022-08-11T14:27:01.459Z,28.60
2022-08-11T14:29:27.763Z,28.69
2022-08-11T14:31:54.060Z,28.81
2022-08-11T14:34:21.639Z,28.86
2022-08-11T14:36:47.879Z,29.07
2022-08-11T14:39:14.261Z,29.15
2022-08-11T14:42:10.088Z,28.98
2022-08-11T14:44:57.579Z,28.93
2022-08-11T14:47:25.443Z,28.93
2022-08-11T14:49:58.114Z,29.02
2022-08-11T14:52:35.597Z,29.17
2022-08-11T14:55:20.440Z,28.97
2022-08-11T14:57:55.107Z,29.03
2022-08-11T15:00:22.745Z,29.01
2022-08-11T15:03:10.623Z,29.07
2022-08-11T15:05:37.201Z,28.69
2022-08-11T15:08:03.520Z,28.71
2022-08-11T15:10:29.826Z,28.65
2022-08-11T15:12:56.138Z,28.80
2022-08-11T15:15:41.039Z,28.42
2022-08-11T15:18:07.342Z,28.50
2022-08-11T15:20:53.681Z,28.65
2022-08-11T15:23:38.961Z,28.57
2022-08-11T15:26:05.267Z,28.64
2022-08-11T15:28:50.063Z,28.70
2022-08-11T15:31:34.951Z,28.49
2022-08-11T15:34:19.640Z,28.60
2022-08-11T15:37:04.503Z,28.74
2022-08-11T15:39:30.877Z,28.72
2022-08-11T15:42:16.138Z,28.61
2022-08-11T15:45:03.330Z,28.39
2022-08-11T15:47:30.862Z,28.42
2022-08-11T15:50:11.096Z,28.46
2022-08-11T15:52:39.794Z,28.48
2022-08-11T15:55:06.144Z,28.39
2022-08-11T15:57:54.031Z,28.43
2022-08-11T16:00:38.812Z,28.35
2022-08-11T16:03:23.690Z,27.97
2022-08-11T16:06:09.968Z,28.32
2022-08-11T16:08:40.451Z,28.38
2022-08-11T16:11:07.801Z,28.26
2022-08-11T16:13:35.214Z,28.44
2022-08-11T16:16:17.147Z,28.29
2022-08-11T16:18:43.491Z,28.35
2022-08-11T16:21:09.786Z,28.33
2022-08-11T16:23:52.601Z,28.19
2022-08-11T16:27:09.502Z,28.19
2022-08-11T16:29:05.207Z,28.23
2022-08-11T16:31:32.774Z,28.26
2022-08-11T16:33:59.078Z,28.23
2022-08-11T16:36:44.097Z,28.32
2022-08-11T16:39:10.430Z,28.23
2022-08-11T16:41:55.538Z,28.21
2022-08-11T16:44:40.443Z,28.25
2022-08-11T16:47:06.746Z,28.20
2022-08-11T16:49:34.897Z,27.99
2022-08-11T16:52:03.936Z,28.09
2022-08-11T16:54:30.239Z,28.04
2022-08-11T16:56:57.373Z,28.06
2022-08-11T16:59:23.660Z,28.09
2022-08-11T17:01:50.040Z,28.09
2022-08-11T17:04:34.829Z,27.94
2022-08-11T17:07:23.893Z,28.04
2022-08-11T17:10:50.240Z,27.92
2022-08-11T17:13:10.690Z,27.99
2022-08-11T17:15:55.508Z,27.98
2022-08-11T17:18:40.204Z,27.82
2022-08-11T17:21:06.504Z,27.75
2022-08-11T17:23:47.913Z,27.78
2022-08-11T17:26:14.225Z,27.81
2022-08-11T17:28:42.091Z,27.80
2022-08-11T17:31:27.221Z,27.65
2022-08-11T17:34:12.218Z,27.57
2022-08-11T17:36:44.534Z,27.41
2022-08-11T17:39:11.844Z,27.34
2022-08-11T17:41:58.415Z,27.40
2022-08-11T17:44:43.282Z,27.37
2022-08-11T17:47:28.171Z,27.31
2022-08-11T17:49:54.506Z,27.28
2022-08-11T17:52:39.452Z,27.24
2022-08-11T17:55:51.851Z,27.28
2022-08-11T17:58:29.448Z,27.24
2022-08-11T18:00:55.970Z,27.16
2022-08-11T18:03:33.054Z,27.11
2022-08-11T18:06:00.893Z,27.06
2022-08-11T18:08:46.068Z,27.04
2022-08-11T18:12:11.953Z,26.97
2022-08-11T18:14:35.752Z,26.88
2022-08-11T18:17:20.448Z,26.82
2022-08-11T18:20:05.283Z,26.66
2022-08-11T18:22:50.161Z,26.66
2022-08-11T18:25:35.016Z,26.61
2022-08-11T18:28:19.891Z,26.58
2022-08-11T18:31:05.313Z,26.37
2022-08-11T18:34:06.293Z,26.38
2022-08-11T18:36:52.499Z,26.31
2022-08-11T18:39:37.494Z,26.25
2022-08-11T18:42:29.051Z,26.13
2022-08-11T18:45:15.019Z,26.10
2022-08-11T18:47:59.895Z,25.98
2022-08-11T18:50:51.395Z,25.97
2022-08-11T18:53:51.946Z,25.94
2022-08-11T18:56:40.831Z,25.87
2022-08-11T18:59:25.682Z,25.73
2022-08-11T19:02:10.556Z,25.59
2022-08-11T19:04:55.422Z,25.52
2022-08-11T19:07:40.198Z,25.46
2022-08-11T19:10:24.931Z,25.40
2022-08-11T19:13:09.803Z,25.32
2022-08-11T19:15:54.635Z,25.27
2022-08-11T19:18:39.662Z,25.18
2022-08-11T19:21:24.920Z,25.11
2022-08-11T19:24:09.770Z,25.03
2022-08-11T19:26:54.743Z,24.95
2022-08-11T19:30:05.153Z,24.87
2022-08-11T19:32:44.640Z,24.77
2022-08-11T19:35:29.562Z,24.70
2022-08-11T19:38:14.526Z,24.64
2022-08-11T19:40:59.552Z,24.57
2022-08-11T19:43:44.349Z,24.50
2022-08-11T19:46:29.230Z,24.45
2022-08-11T19:49:14.132Z,24.38
2022-08-11T19:51:59.057Z,24.30
2022-08-11T19:54:44.303Z,24.25
2022-08-11T19:57:29.241Z,24.15
2022-08-11T20:00:14.182Z,24.09
2022-08-11T20:02:58.952Z,24.02
2022-08-11T20:05:55.682Z,23.95
2022-08-11T20:08:44.746Z,23.81
2022-08-11T20:11:29.777Z,23.68
2022-08-11T20:14:14.569Z,23.52
2022-08-11T20:16:59.537Z,23.61
2022-08-11T20:19:56.382Z,23.56
2022-08-11T20:22:42.372Z,23.26
2022-08-11T20:25:27.317Z,23.33
2022-08-11T20:28:12.172Z,23.34
2022-08-11T20:30:57.158Z,23.29
2022-08-11T20:33:41.880Z,23.24
2022-08-11T20:36:26.820Z,23.17
2022-08-11T20:39:11.742Z,23.12
2022-08-11T20:41:59.381Z,23.05
2022-08-11T20:44:44.889Z,22.99
2022-08-11T20:47:29.789Z,22.95
2022-08-11T20:50:19.278Z,22.88
2022-08-11T20:53:04.361Z,22.80
2022-08-11T20:55:53.043Z,22.69
2022-08-11T20:59:13.373Z,22.64
2022-08-11T21:01:43.680Z,22.57
2022-08-11T21:04:29.077Z,22.45
2022-08-11T21:07:15.137Z,22.45
2022-08-11T21:10:22.937Z,22.41
2022-08-11T21:13:25.517Z,22.18
2022-08-11T21:16:11.774Z,22.13
2022-08-11T21:19:10.210Z,22.18
2022-08-11T21:21:55.510Z,22.18
2022-08-11T21:24:42.913Z,22.14
2022-08-11T21:27:32.320Z,22.05
2022-08-11T21:30:17.125Z,22.01
2022-08-11T21:33:02.040Z,21.97
2022-08-11T21:35:47.099Z,21.92
2022-08-11T21:38:31.929Z,21.84
2022-08-11T21:41:16.889Z,21.80
2022-08-11T21:44:01.734Z,21.74
2022-08-11T21:46:46.551Z,21.64
2022-08-11T21:49:31.406Z,21.60
2022-08-11T21:52:16.413Z,21.54
2022-08-11T21:55:01.271Z,21.46
2022-08-11T21:57:47.943Z,21.39
2022-08-11T22:00:34.957Z,21.36
2022-08-11T22:03:19.654Z,21.32
2022-08-11T22:06:04.558Z,21.30
2022-08-11T22:08:49.451Z,21.10
2022-08-11T22:11:34.806Z,21.15
2022-08-11T22:14:19.736Z,21.09
2022-08-11T22:17:04.593Z,21.06
2022-08-11T22:19:49.491Z,21.09
2022-08-11T22:22:34.342Z,21.04
2022-08-11T22:25:38.606Z,21.02
2022-08-11T22:28:24.161Z,20.92
2022-08-11T22:31:08.902Z,20.75
2022-08-11T22:34:02.809Z,20.80
2022-08-11T22:36:48.305Z,20.76
2022-08-11T22:39:35.394Z,20.64
2022-08-11T22:42:20.411Z,20.55
2022-08-11T22:45:17.809Z,20.47
2022-08-11T22:48:02.612Z,20.54
2022-08-11T22:50:47.506Z,20.53
2022-08-11T22:53:57.715Z,20.49
2022-08-11T22:56:37.352Z,20.32
2022-08-11T22:59:22.213Z,20.33
2022-08-11T23:02:07.000Z,20.31
2022-08-11T23:04:53.313Z,20.30
2022-08-11T23:07:51.453Z,20.30
2022-08-11T23:10:36.787Z,20.02
2022-08-11T23:13:22.054Z,20.10
2022-08-11T23:16:07.322Z,20.16
2022-08-11T23:18:52.105Z,20.12
2022-08-11T23:21:37.440Z,19.97
2022-08-11T23:24:22.737Z,20.03
2022-08-11T23:27:07.463Z,19.89
2022-08-11T23:29:52.320Z,19.96
2022-08-11T23:32:37.135Z,19.78
2022-08-11T23:35:38.602Z,19.90
2022-08-11T23:38:25.487Z,19.89
2022-08-11T23:41:10.451Z,19.88
2022-08-11T23:43:55.297Z,19.87
2022-08-11T23:46:40.088Z,19.79
2022-08-11T23:49:24.986Z,19.72
2022-08-11T23:52:09.792Z,19.64
2022-08-11T23:54:54.663Z,19.65
2022-08-11T23:57:47.701Z,19.53
